Time;durP1;ratioP1;P1;durP2;ratioP2;P2;SDS_P1;SDS_P2;PMS_P1;PMS_P2;Temp;Humidity;BMP_temperature;BMP_pressure;BME280_temperature;BME280_humidity;BME280_pressure;Samples;Min_cycle;Max_cycle;Signal;HPM_P1;HPM_P2
2022/11/08 00:01:31;;;;;;;;;;;12.00;95.30;;;;;;4987319;28;19936;-74
2022/11/08 00:03:57;;;;;;;;;;;12.00;95.40;;;;;;4986964;28;20426;-74
2022/11/08 00:14:35;;;;;;;;;;;11.90;95.30;;;;;;4987779;28;20624;-74
2022/11/08 00:17:01;;;;;;;;;;;11.90;95.30;;;;;;4987735;28;19917;-73
2022/11/08 00:19:26;;;;;;;;;;;11.90;95.60;;;;;;4987103;28;19914;-73
2022/11/08 00:21:52;;;;;;;;;;;11.90;95.30;;;;;;4987413;28;19914;-73
2022/11/08 00:24:17;;;;;;;;;;;11.90;95.30;;;;;;4988122;28;20077;-73
2022/11/08 00:26:43;;;;;;;;;;;11.90;95.30;;;;;;4987359;28;19937;-73
2022/11/08 00:29:08;;;;;;;;;;;11.90;95.30;;;;;;4986982;28;19940;-74
2022/11/08 00:31:34;;;;;;;;;;;11.90;95.30;;;;;;4987353;28;19968;-73
2022/11/08 00:33:59;;;;;;;;;;;11.90;95.30;;;;;;4987054;28;19914;-74
2022/11/08 00:36:24;;;;;;;;;;;11.90;95.30;;;;;;4986900;28;19914;-73
2022/11/08 00:38:50;;;;;;;;;;;11.80;95.30;;;;;;4987324;28;20004;-73
2022/11/08 00:41:15;;;;;;;;;;;11.80;95.30;;;;;;4986905;28;19918;-74
2022/11/08 00:43:41;;;;;;;;;;;11.80;95.20;;;;;;4999348;28;19920;-73
2022/11/08 00:46:07;;;;;;;;;;;11.90;95.20;;;;;;5006827;28;20613;-73
2022/11/08 00:48:32;;;;;;;;;;;11.90;95.20;;;;;;5005486;28;19914;-74
2022/11/08 00:51:05;;;;;;;;;;;11.90;95.20;;;;;;4986408;28;19992;-73
2022/11/08 00:53:31;;;;;;;;;;;11.80;95.10;;;;;;4986686;28;20002;-74
2022/11/08 00:56:00;;;;;;;;;;;11.80;95.10;;;;;;4986543;28;20428;-73
2022/11/08 00:58:26;;;;;;;;;;;11.80;95.10;;;;;;4986956;28;19964;-74
2022/11/08 01:00:52;;;;;;;;;;;11.80;95.10;;;;;;4985092;28;19941;-73
2022/11/08 01:03:20;;;;;;;;;;;11.80;95.10;;;;;;4986809;28;19917;-74
2022/11/08 01:05:49;;;;;;;;;;;11.80;95.10;;;;;;4986902;28;19968;-74
2022/11/08 01:08:15;;;;;;;;;;;11.80;95.40;;;;;;4986515;28;19949;-74
2022/11/08 01:10:41;;;;;;;;;;;11.80;95.10;;;;;;4986333;28;20637;-74
2022/11/08 01:13:07;;;;;;;;;;;11.90;95.10;;;;;;4994685;28;19917;-74
2022/11/08 01:15:33;;;;;;;;;;;11.80;95.10;;;;;;5005843;28;20596;-74
2022/11/08 01:17:58;;;;;;;;;;;11.80;95.10;;;;;;5004326;28;19921;-73
2022/11/08 01:20:24;;;;;;;;;;;11.80;95.10;;;;;;5004616;28;19967;-73
2022/11/08 01:22:49;;;;;;;;;;;11.90;95.10;;;;;;5002664;28;20549;-73
2022/11/08 01:25:15;;;;;;;;;;;11.90;95.20;;;;;;4984036;28;19925;-74
2022/11/08 01:27:42;;;;;;;;;;;11.90;95.20;;;;;;4984458;28;19914;-74
2022/11/08 01:30:08;;;;;;;;;;;11.80;95.10;;;;;;4984721;28;19913;-73
2022/11/08 01:32:33;;;;;;;;;;;11.80;95.20;;;;;;4984675;28;19914;-73
2022/11/08 01:34:59;;;;;;;;;;;11.80;95.10;;;;;;4985075;28;19914;-73
2022/11/08 01:37:24;;;;;;;;;;;11.80;95.20;;;;;;4985047;28;19972;-73
2022/11/08 01:39:50;;;;;;;;;;;11.80;95.20;;;;;;4984739;28;19914;-73
2022/11/08 01:42:15;;;;;;;;;;;11.80;95.20;;;;;;4986198;28;20395;-73
2022/11/08 01:45:00;;;;;;;;;;;11.80;95.20;;;;;;4991378;28;19918;-73
2022/11/08 01:47:26;;;;;;;;;;;11.80;95.10;;;;;;4985766;28;19921;-73
2022/11/08 01:49:54;;;;;;;;;;;11.80;95.10;;;;;;4985175;28;19921;-73
2022/11/08 01:52:23;;;;;;;;;;;11.80;95.10;;;;;;4975962;28;19964;-74
2022/11/08 01:54:48;;;;;;;;;;;11.80;95.10;;;;;;4966586;28;19945;-74
2022/11/08 01:57:18;;;;;;;;;;;11.80;95.10;;;;;;4966421;28;19914;-73
2022/11/08 01:59:45;;;;;;;;;;;11.80;95.10;;;;;;4968758;28;19921;-73
2022/11/08 02:02:11;;;;;;;;;;;11.80;95.10;;;;;;4985993;28;19914;-73
2022/11/08 02:04:37;;;;;;;;;;;11.80;95.10;;;;;;4985352;28;19948;-74
2022/11/08 02:07:03;;;;;;;;;;;11.80;95.10;;;;;;4985369;28;19991;-73
2022/11/08 02:09:29;;;;;;;;;;;11.80;95.10;;;;;;4985889;28;19921;-73
2022/11/08 02:11:55;;;;;;;;;;;11.80;95.10;;;;;;4986151;28;19921;-73
2022/11/08 02:14:21;;;;;;;;;;;11.80;95.10;;;;;;5002403;28;20031;-73
2022/11/08 02:16:46;;;;;;;;;;;11.90;95.10;;;;;;5003638;28;19913;-73
2022/11/08 02:19:16;;;;;;;;;;;11.90;95.10;;;;;;4985755;28;19921;-74
2022/11/08 02:21:46;;;;;;;;;;;11.90;95.10;;;;;;4985325;28;19973;-73
2022/11/08 02:24:13;;;;;;;;;;;11.80;95.10;;;;;;4986117;28;20488;-73
2022/11/08 02:26:39;;;;;;;;;;;11.90;95.10;;;;;;4985565;28;19929;-73
2022/11/08 02:29:23;;;;;;;;;;;11.90;95.10;;;;;;4985803;28;19914;-73
2022/11/08 02:31:48;;;;;;;;;;;11.80;95.10;;;;;;4967192;28;19949;-73
2022/11/08 02:34:14;;;;;;;;;;;11.90;95.10;;;;;;4985595;28;19964;-74
2022/11/08 02:36:39;;;;;;;;;;;11.90;95.10;;;;;;4985119;28;20379;-74
2022/11/08 02:39:05;;;;;;;;;;;11.90;95.10;;;;;;4985057;28;19914;-74
2022/11/08 02:41:30;;;;;;;;;;;11.80;95.10;;;;;;4985937;28;19949;-74
2022/11/08 02:43:56;;;;;;;;;;;11.80;95.10;;;;;;5003641;28;19960;-74
2022/11/08 02:46:21;;;;;;;;;;;11.90;95.20;;;;;;4993726;28;20533;-74
2022/11/08 02:48:47;;;;;;;;;;;11.80;95.10;;;;;;4984912;28;19988;-74
2022/11/08 02:51:12;;;;;;;;;;;11.80;95.10;;;;;;4984463;28;19952;-74
2022/11/08 02:53:38;;;;;;;;;;;11.80;95.10;;;;;;4984943;28;19918;-74
2022/11/08 02:56:03;;;;;;;;;;;11.80;95.20;;;;;;4985402;28;20676;-73
2022/11/08 02:58:29;;;;;;;;;;;11.80;95.10;;;;;;4985293;28;20006;-73
2022/11/08 03:00:54;;;;;;;;;;;11.80;95.20;;;;;;4984373;28;20578;-74
2022/11/08 03:03:20;;;;;;;;;;;11.80;95.20;;;;;;4986650;28;19948;-73
2022/11/08 03:05:46;;;;;;;;;;;11.80;95.10;;;;;;5001579;28;20438;-73
2022/11/08 03:08:12;;;;;;;;;;;11.80;95.20;;;;;;4985312;28;19945;-74
2022/11/08 03:10:37;;;;;;;;;;;11.80;95.20;;;;;;4984299;28;20586;-73
2022/11/08 03:13:04;;;;;;;;;;;11.80;95.20;;;;;;4992659;28;19940;-74
2022/11/08 03:15:30;;;;;;;;;;;11.70;95.20;;;;;;5004857;28;19913;-74
2022/11/08 03:17:56;;;;;;;;;;;11.70;95.20;;;;;;5003658;28;20484;-73
2022/11/08 03:20:22;;;;;;;;;;;11.70;95.20;;;;;;5007391;28;19913;-74
2022/11/08 03:22:47;;;;;;;;;;;11.70;95.20;;;;;;5007793;28;19914;-73
2022/11/08 03:25:13;;;;;;;;;;;11.70;95.20;;;;;;5006854;28;19914;-74
2022/11/08 03:27:38;;;;;;;;;;;11.70;95.20;;;;;;4995586;28;19961;-74
2022/11/08 03:30:05;;;;;;;;;;;11.70;95.20;;;;;;4988308;28;19983;-73
2022/11/08 03:32:30;;;;;;;;;;;11.70;95.20;;;;;;4988591;28;19960;-74
2022/11/08 03:34:58;;;;;;;;;;;11.70;95.20;;;;;;4988332;28;20004;-73
2022/11/08 03:37:24;;;;;;;;;;;11.70;95.30;;;;;;4988378;28;20004;-73
2022/11/08 03:39:49;;;;;;;;;;;11.60;95.20;;;;;;4986726;28;19910;-73
2022/11/08 03:42:15;;;;;;;;;;;11.60;95.20;;;;;;4989758;28;19913;-73
2022/11/08 03:44:41;;;;;;;;;;;11.70;95.20;;;;;;5007398;28;19921;-74
2022/11/08 03:47:07;;;;;;;;;;;11.60;95.20;;;;;;5002421;28;19997;-73
2022/11/08 03:49:32;;;;;;;;;;;11.60;95.20;;;;;;4987887;28;20348;-74
2022/11/08 03:51:58;;;;;;;;;;;11.60;95.20;;;;;;4988143;28;20004;-73
2022/11/08 03:54:23;;;;;;;;;;;11.60;95.20;;;;;;4987972;28;19913;-73
2022/11/08 03:56:49;;;;;;;;;;;11.60;95.20;;;;;;4988073;28;19913;-73
2022/11/08 03:59:14;;;;;;;;;;;11.60;95.20;;;;;;4987546;28;19914;-74
2022/11/08 04:01:40;;;;;;;;;;;11.60;95.20;;;;;;4984980;28;19925;-73
2022/11/08 04:04:05;;;;;;;;;;;11.60;95.20;;;;;;4986428;28;19972;-74
2022/11/08 04:06:31;;;;;;;;;;;11.50;95.20;;;;;;4988072;28;19913;-73
2022/11/08 04:08:57;;;;;;;;;;;11.50;95.20;;;;;;4987514;28;20434;-73
2022/11/08 04:16:51;;;;;;;;;;;11.50;95.20;;;;;;5007441;28;19920;-74
2022/11/08 04:22:01;;;;;;;;;;;11.50;95.20;;;;;;4987494;28;19920;-74
2022/11/08 04:24:26;;;;;;;;;;;11.50;95.20;;;;;;4987616;28;20298;-73
2022/11/08 04:26:52;;;;;;;;;;;11.50;95.20;;;;;;4987602;28;19914;-73
2022/11/08 04:29:17;;;;;;;;;;;11.50;95.50;;;;;;4986123;28;20688;-74
2022/11/08 04:31:42;;;;;;;;;;;11.40;95.20;;;;;;4985653;28;19960;-74
2022/11/08 04:34:08;;;;;;;;;;;11.40;95.20;;;;;;4990601;28;20333;-73
2022/11/08 04:36:34;;;;;;;;;;;11.40;95.20;;;;;;4986844;28;20490;-74
2022/11/08 04:38:59;;;;;;;;;;;11.40;95.30;;;;;;4986397;28;19913;-74
2022/11/08 04:41:25;;;;;;;;;;;11.40;95.20;;;;;;4987200;28;19917;-73
2022/11/08 04:43:52;;;;;;;;;;;11.40;95.20;;;;;;5001125;28;19913;-73
2022/11/08 04:46:22;;;;;;;;;;;11.40;95.50;;;;;;5006757;28;19983;-74
2022/11/08 04:48:49;;;;;;;;;;;11.40;95.20;;;;;;4996477;28;20004;-73
2022/11/08 04:51:16;;;;;;;;;;;11.40;95.20;;;;;;4984966;28;19914;-74
2022/11/08 04:53:41;;;;;;;;;;;11.40;95.20;;;;;;4986961;28;19918;-73
2022/11/08 04:56:07;;;;;;;;;;;11.40;95.20;;;;;;4987263;28;19926;-73
2022/11/08 04:58:34;;;;;;;;;;;11.40;95.20;;;;;;4986781;28;19968;-73
2022/11/08 05:01:00;;;;;;;;;;;11.30;95.30;;;;;;4986623;28;19914;-74
2022/11/08 05:03:25;;;;;;;;;;;11.30;95.20;;;;;;4987265;28;19952;-74
2022/11/08 05:05:51;;;;;;;;;;;11.30;95.30;;;;;;4987007;28;19959;-74
2022/11/08 05:08:16;;;;;;;;;;;11.30;95.30;;;;;;4986812;28;19921;-73
2022/11/08 05:10:42;;;;;;;;;;;11.30;95.30;;;;;;4986455;28;19957;-73
2022/11/08 05:13:07;;;;;;;;;;;11.30;95.20;;;;;;4994897;28;19945;-73
2022/11/08 05:15:34;;;;;;;;;;;11.30;95.20;;;;;;5006073;28;20038;-74
2022/11/08 05:17:59;;;;;;;;;;;11.30;95.20;;;;;;5005911;28;19920;-74
2022/11/08 05:23:24;;;;;;;;;;;11.30;95.20;;;;;;5005776;28;19921;-73
2022/11/08 05:25:51;;;;;;;;;;;11.20;95.20;;;;;;5006159;28;19909;-73
2022/11/08 05:28:16;;;;;;;;;;;11.20;95.20;;;;;;5005431;28;19913;-73
2022/11/08 05:30:42;;;;;;;;;;;11.20;95.30;;;;;;4986207;28;20637;-73
2022/11/08 05:33:07;;;;;;;;;;;11.20;95.20;;;;;;4986299;28;19938;-73
2022/11/08 05:35:33;;;;;;;;;;;11.20;95.20;;;;;;4986197;28;20012;-73
2022/11/08 05:37:58;;;;;;;;;;;11.20;95.20;;;;;;4986201;28;20021;-74
2022/11/08 05:40:24;;;;;;;;;;;11.20;95.20;;;;;;4985676;28;19921;-73
2022/11/08 05:42:51;;;;;;;;;;;11.20;95.20;;;;;;4988666;28;19917;-73
2022/11/08 05:45:17;;;;;;;;;;;11.20;95.20;;;;;;4986087;28;19918;-74
2022/11/08 05:47:43;;;;;;;;;;;11.20;95.20;;;;;;4986130;28;19914;-73
2022/11/08 05:50:09;;;;;;;;;;;11.20;95.30;;;;;;4985955;28;20013;-75
2022/11/08 05:52:34;;;;;;;;;;;11.20;95.30;;;;;;4985836;28;20532;-73
2022/11/08 05:54:59;;;;;;;;;;;11.10;95.20;;;;;;4985918;28;19921;-73
2022/11/08 05:57:25;;;;;;;;;;;11.10;95.20;;;;;;4985794;28;20609;-73
2022/11/08 05:59:50;;;;;;;;;;;11.20;95.30;;;;;;4985850;28;19991;-73
2022/11/08 06:02:16;;;;;;;;;;;11.20;95.20;;;;;;4985998;28;19917;-73
2022/11/08 06:04:42;;;;;;;;;;;11.10;95.20;;;;;;4985886;28;19920;-73
2022/11/08 06:07:07;;;;;;;;;;;11.10;95.20;;;;;;4985855;28;19917;-73
2022/11/08 06:09:33;;;;;;;;;;;11.10;95.20;;;;;;4981670;28;19969;-73
2022/11/08 06:11:58;;;;;;;;;;;11.10;95.20;;;;;;4983786;28;19944;-73
2022/11/08 06:14:24;;;;;;;;;;;11.20;95.20;;;;;;5004033;28;19917;-73
2022/11/08 06:16:49;;;;;;;;;;;11.10;95.20;;;;;;5005369;28;19914;-74
2022/11/08 06:19:15;;;;;;;;;;;11.10;95.20;;;;;;5005405;28;20331;-74
2022/11/08 06:21:40;;;;;;;;;;;11.10;95.20;;;;;;5005388;28;19921;-73
2022/11/08 06:24:06;;;;;;;;;;;11.10;95.20;;;;;;5005460;28;19913;-74
2022/11/08 06:26:32;;;;;;;;;;;11.10;95.20;;;;;;4993743;28;19952;-73
2022/11/08 06:28:57;;;;;;;;;;;11.10;95.20;;;;;;4985623;28;19937;-74
2022/11/08 06:31:23;;;;;;;;;;;11.10;95.20;;;;;;4985141;28;19968;-73
2022/11/08 06:33:49;;;;;;;;;;;11.10;95.20;;;;;;4985078;28;19914;-74
2022/11/08 06:36:14;;;;;;;;;;;11.10;95.10;;;;;;4985308;28;19961;-73
2022/11/08 06:38:40;;;;;;;;;;;11.10;95.10;;;;;;4985451;28;20456;-73
2022/11/08 06:41:05;;;;;;;;;;;11.10;95.10;;;;;;4985217;28;20017;-73
2022/11/08 06:43:31;;;;;;;;;;;11.10;95.10;;;;;;4996831;28;19921;-73
2022/11/08 06:46:01;;;;;;;;;;;11.10;95.10;;;;;;5005239;28;19921;-73
2022/11/08 06:48:26;;;;;;;;;;;11.10;95.10;;;;;;5005307;28;19914;-73
2022/11/08 06:50:52;;;;;;;;;;;11.10;95.10;;;;;;4993356;28;19941;-73
2022/11/08 06:53:17;;;;;;;;;;;11.10;95.10;;;;;;4987183;28;19918;-74
2022/11/08 06:55:42;;;;;;;;;;;11.10;95.00;;;;;;4989377;28;19999;-73
2022/11/08 06:58:09;;;;;;;;;;;11.10;95.00;;;;;;4989375;28;19929;-74
2022/11/08 07:00:34;;;;;;;;;;;11.10;95.00;;;;;;4988869;28;20004;-74
2022/11/08 07:03:02;;;;;;;;;;;11.10;95.00;;;;;;4989353;28;20044;-73
2022/11/08 07:05:28;;;;;;;;;;;11.20;95.00;;;;;;4989251;28;20160;-73
2022/11/08 07:07:56;;;;;;;;;;;11.20;95.00;;;;;;4988863;28;20592;-73
2022/11/08 07:10:22;;;;;;;;;;;11.20;94.90;;;;;;4988577;28;19926;-73
2022/11/08 07:12:49;;;;;;;;;;;11.20;94.90;;;;;;4994216;28;19921;-73
2022/11/08 07:15:15;;;;;;;;;;;11.20;94.90;;;;;;5008490;28;19909;-73
2022/11/08 07:17:41;;;;;;;;;;;11.20;94.90;;;;;;5006905;28;20315;-74
2022/11/08 07:20:07;;;;;;;;;;;11.20;94.80;;;;;;5007988;28;19956;-73
2022/11/08 07:22:33;;;;;;;;;;;11.20;94.80;;;;;;5008218;28;19945;-73
2022/11/08 07:24:58;;;;;;;;;;;11.20;94.80;;;;;;5008483;28;20433;-73
2022/11/08 07:27:24;;;;;;;;;;;11.30;94.80;;;;;;5008307;28;19913;-73
2022/11/08 07:29:49;;;;;;;;;;;11.30;94.80;;;;;;4998088;28;19961;-74
2022/11/08 07:32:14;;;;;;;;;;;11.30;94.80;;;;;;4988515;28;19914;-74
2022/11/08 07:34:40;;;;;;;;;;;11.30;94.70;;;;;;4988605;28;19917;-74
2022/11/08 07:37:05;;;;;;;;;;;11.30;94.70;;;;;;4988171;28;19929;-74
2022/11/08 07:39:31;;;;;;;;;;;11.30;94.70;;;;;;4988099;28;20371;-73
2022/11/08 07:41:57;;;;;;;;;;;11.30;94.70;;;;;;4988312;28;19918;-73
2022/11/08 07:44:22;;;;;;;;;;;11.30;94.70;;;;;;5006319;28;19913;-73
2022/11/08 07:46:48;;;;;;;;;;;11.30;94.70;;;;;;4995929;28;20739;-73
2022/11/08 07:49:13;;;;;;;;;;;11.30;94.60;;;;;;4987992;28;20292;-73
2022/11/08 07:51:39;;;;;;;;;;;11.30;94.60;;;;;;4987834;28;19924;-73
2022/11/08 07:54:04;;;;;;;;;;;11.40;94.60;;;;;;4988265;28;19984;-73
2022/11/08 07:56:30;;;;;;;;;;;11.40;94.60;;;;;;4988150;28;20008;-74
2022/11/08 07:58:55;;;;;;;;;;;11.40;94.60;;;;;;4988174;28;19918;-73
2022/11/08 08:01:21;;;;;;;;;;;11.40;94.60;;;;;;4988081;28;19913;-73
2022/11/08 08:03:46;;;;;;;;;;;11.40;94.60;;;;;;4987621;28;19914;-73
2022/11/08 08:06:11;;;;;;;;;;;11.40;94.60;;;;;;4986326;28;19918;-73
2022/11/08 08:08:37;;;;;;;;;;;11.40;94.90;;;;;;4968465;28;20490;-73
2022/11/08 08:11:03;;;;;;;;;;;11.40;94.60;;;;;;4968355;28;19918;-73
2022/11/08 08:13:29;;;;;;;;;;;11.40;94.60;;;;;;4996078;28;20470;-73
2022/11/08 08:15:59;;;;;;;;;;;11.40;94.50;;;;;;5002792;28;19921;-73
2022/11/08 08:18:24;;;;;;;;;;;11.50;94.50;;;;;;4987557;28;20610;-73
2022/11/08 08:20:50;;;;;;;;;;;11.50;94.50;;;;;;4986922;28;19918;-73
2022/11/08 08:23:15;;;;;;;;;;;11.50;94.50;;;;;;4987656;28;20667;-73
2022/11/08 08:25:41;;;;;;;;;;;11.50;94.40;;;;;;4987744;28;19914;-73
2022/11/08 08:28:08;;;;;;;;;;;11.60;94.40;;;;;;4987323;28;19989;-73
2022/11/08 08:30:33;;;;;;;;;;;11.60;94.30;;;;;;4987372;28;19910;-73
2022/11/08 08:33:00;;;;;;;;;;;11.60;94.30;;;;;;4987436;28;19925;-74
2022/11/08 08:35:26;;;;;;;;;;;11.60;94.20;;;;;;4987508;28;19920;-73
2022/11/08 08:37:51;;;;;;;;;;;11.70;94.20;;;;;;4987725;28;19918;-73
2022/11/08 08:40:16;;;;;;;;;;;11.70;94.10;;;;;;4987263;28;20027;-73
2022/11/08 08:42:42;;;;;;;;;;;11.70;94.10;;;;;;4992132;28;19921;-73
2022/11/08 08:45:09;;;;;;;;;;;11.80;94.10;;;;;;5006931;28;20005;-73
2022/11/08 08:47:34;;;;;;;;;;;11.80;94.00;;;;;;4998393;28;19918;-73
2022/11/08 08:50:00;;;;;;;;;;;11.80;93.90;;;;;;4987302;28;19914;-74
2022/11/08 08:52:25;;;;;;;;;;;11.90;94.00;;;;;;4986940;28;19913;-73
2022/11/08 08:54:51;;;;;;;;;;;11.90;94.00;;;;;;4987051;28;19968;-73
2022/11/08 08:57:16;;;;;;;;;;;11.90;93.90;;;;;;4987034;28;19921;-73
2022/11/08 08:59:42;;;;;;;;;;;11.90;93.90;;;;;;4986742;28;19920;-73
2022/11/08 09:02:09;;;;;;;;;;;11.90;93.90;;;;;;4986834;28;19920;-73
2022/11/08 09:04:34;;;;;;;;;;;12.00;93.90;;;;;;4986661;28;19918;-73
2022/11/08 09:07:00;;;;;;;;;;;12.00;93.90;;;;;;4986715;28;19984;-73
2022/11/08 09:09:25;;;;;;;;;;;12.00;93.90;;;;;;4985118;28;20934;-73
2022/11/08 09:11:51;;;;;;;;;;;12.00;93.90;;;;;;4986875;28;19993;-73
2022/11/08 09:14:16;;;;;;;;;;;12.00;93.80;;;;;;5004253;28;20013;-73
2022/11/08 09:16:42;;;;;;;;;;;12.10;93.90;;;;;;4991460;28;19914;-73
2022/11/08 09:19:08;;;;;;;;;;;12.10;93.80;;;;;;4986641;28;20060;-73
2022/11/08 09:21:33;;;;;;;;;;;12.10;93.70;;;;;;4986516;28;19914;-73
2022/11/08 09:23:59;;;;;;;;;;;12.10;93.80;;;;;;4986352;28;19989;-73
2022/11/08 09:26:24;;;;;;;;;;;12.20;93.80;;;;;;4986487;28;20430;-73
2022/11/08 09:28:50;;;;;;;;;;;12.20;93.70;;;;;;4986299;28;19914;-73
2022/11/08 09:31:15;;;;;;;;;;;12.20;93.70;;;;;;4985655;28;19918;-74
2022/11/08 09:33:41;;;;;;;;;;;12.20;93.70;;;;;;4986201;28;19960;-73
2022/11/08 09:36:08;;;;;;;;;;;12.30;93.60;;;;;;4986164;28;19914;-73
2022/11/08 09:38:33;;;;;;;;;;;12.30;93.60;;;;;;4986170;28;19940;-74
2022/11/08 09:40:59;;;;;;;;;;;12.30;93.60;;;;;;4985735;28;20647;-74
2022/11/08 09:43:24;;;;;;;;;;;12.40;93.60;;;;;;4994401;28;20586;-74
2022/11/08 09:45:51;;;;;;;;;;;12.40;93.60;;;;;;4985591;28;19913;-73
2022/11/08 09:48:26;;;;;;;;;;;12.40;93.50;;;;;;4986088;28;20007;-73
2022/11/08 09:50:53;;;;;;;;;;;12.50;93.50;;;;;;4985971;28;19914;-73
2022/11/08 09:53:23;;;;;;;;;;;12.50;93.40;;;;;;4986333;28;20384;-73
2022/11/08 09:56:01;;;;;;;;;;;12.50;93.30;;;;;;4986111;28;19953;-73
2022/11/08 09:58:32;;;;;;;;;;;12.60;93.40;;;;;;4985956;28;20693;-73
2022/11/08 10:00:58;;;;;;;;;;;12.60;93.30;;;;;;4985906;28;19921;-74
2022/11/08 10:03:24;;;;;;;;;;;12.60;93.20;;;;;;4986270;28;19948;-73
2022/11/08 10:06:17;;;;;;;;;;;12.60;93.30;;;;;;4985869;28;20028;-73
2022/11/08 10:08:49;;;;;;;;;;;12.60;93.30;;;;;;4985762;28;19961;-73
2022/11/08 10:11:22;;;;;;;;;;;12.70;93.20;;;;;;4982244;28;19944;-73
2022/11/08 10:13:54;;;;;;;;;;;12.80;93.30;;;;;;4999012;28;19972;-73
2022/11/08 10:16:25;;;;;;;;;;;12.80;93.10;;;;;;5006010;28;20008;-73
2022/11/08 10:18:51;;;;;;;;;;;12.80;93.10;;;;;;5005490;28;19914;-73
2022/11/08 10:21:35;;;;;;;;;;;12.80;93.00;;;;;;5003832;28;20548;-73
2022/11/08 10:24:03;;;;;;;;;;;12.80;93.00;;;;;;5005743;28;20479;-73
2022/11/08 10:26:38;;;;;;;;;;;12.80;93.00;;;;;;4999336;28;19924;-74
2022/11/08 10:29:16;;;;;;;;;;;12.90;93.20;;;;;;4989743;28;19918;-73
2022/11/08 10:31:43;;;;;;;;;;;12.90;93.10;;;;;;4989552;28;19914;-73
2022/11/08 10:34:11;;;;;;;;;;;12.90;93.20;;;;;;4989840;28;20410;-73
2022/11/08 10:36:39;;;;;;;;;;;12.90;93.40;;;;;;4989761;28;19914;-73
2022/11/08 10:39:07;;;;;;;;;;;13.00;93.10;;;;;;4989554;28;19924;-73
2022/11/08 10:41:38;;;;;;;;;;;13.00;93.20;;;;;;4989014;28;19957;-73
2022/11/08 10:44:24;;;;;;;;;;;13.00;93.00;;;;;;5005288;28;19913;-74
2022/11/08 10:46:56;;;;;;;;;;;13.00;93.00;;;;;;5008634;28;20016;-73
2022/11/08 10:49:23;;;;;;;;;;;13.10;93.10;;;;;;5008739;28;19981;-73
2022/11/08 10:51:50;;;;;;;;;;;13.10;92.90;;;;;;4989632;28;20524;-74
2022/11/08 10:54:34;;;;;;;;;;;13.10;92.90;;;;;;4989280;28;19964;-73
2022/11/08 10:56:59;;;;;;;;;;;13.20;93.00;;;;;;4987902;28;19914;-73
2022/11/08 10:59:29;;;;;;;;;;;13.20;93.00;;;;;;4989241;28;19957;-73
2022/11/08 11:01:55;;;;;;;;;;;13.20;92.90;;;;;;4990035;28;19920;-73
2022/11/08 11:04:38;;;;;;;;;;;13.20;92.90;;;;;;4989340;28;19918;-73
2022/11/08 11:07:22;;;;;;;;;;;13.30;92.70;;;;;;4988189;28;19914;-74
2022/11/08 11:09:48;;;;;;;;;;;13.20;92.80;;;;;;4988902;28;19928;-73
2022/11/08 11:12:13;;;;;;;;;;;13.30;92.80;;;;;;4989995;28;19913;-73
2022/11/08 11:14:39;;;;;;;;;;;13.30;92.90;;;;;;5008709;28;19992;-74
2022/11/08 11:17:11;;;;;;;;;;;13.30;92.90;;;;;;5008641;28;19914;-73
2022/11/08 11:19:36;;;;;;;;;;;13.30;92.80;;;;;;5008446;28;19944;-73
2022/11/08 11:22:06;;;;;;;;;;;13.40;92.80;;;;;;5008591;28;20626;-73
2022/11/08 11:24:35;;;;;;;;;;;13.40;92.70;;;;;;4990153;28;20364;-73
2022/11/08 11:27:01;;;;;;;;;;;13.40;92.60;;;;;;4988792;28;19992;-74
2022/11/08 11:29:36;;;;;;;;;;;13.40;92.60;;;;;;4988733;28;19918;-73
2022/11/08 11:32:19;;;;;;;;;;;13.40;92.80;;;;;;4988803;28;19913;-73
2022/11/08 11:34:50;;;;;;;;;;;13.50;92.70;;;;;;4988993;28;20362;-73
2022/11/08 11:37:39;;;;;;;;;;;13.50;92.40;;;;;;4986810;28;20019;-73
2022/11/08 11:40:24;;;;;;;;;;;13.60;92.70;;;;;;4986891;28;20021;-73
2022/11/08 11:42:49;;;;;;;;;;;13.60;92.60;;;;;;4993965;28;20478;-73
2022/11/08 11:45:21;;;;;;;;;;;13.60;92.50;;;;;;4991506;28;19914;-73
2022/11/08 11:47:52;;;;;;;;;;;13.60;92.40;;;;;;4988686;28;19913;-73
2022/11/08 11:50:17;;;;;;;;;;;13.70;92.40;;;;;;4988339;28;19913;-73
2022/11/08 11:52:42;;;;;;;;;;;13.70;92.60;;;;;;4988322;28;19941;-73
2022/11/08 11:55:11;;;;;;;;;;;13.70;92.50;;;;;;4988695;28;19914;-73
2022/11/08 11:57:46;;;;;;;;;;;13.70;92.40;;;;;;4988755;28;19918;-73
2022/11/08 12:00:12;;;;;;;;;;;13.80;92.40;;;;;;4988154;28;19949;-73
2022/11/08 12:02:56;;;;;;;;;;;13.80;92.50;;;;;;4988242;28;19924;-73
2022/11/08 12:05:21;;;;;;;;;;;13.80;92.40;;;;;;4985341;28;20468;-73
2022/11/08 12:07:53;;;;;;;;;;;13.90;92.50;;;;;;4969070;28;19922;-73
2022/11/08 12:10:27;;;;;;;;;;;13.90;92.30;;;;;;4968469;28;20590;-73
2022/11/08 12:12:56;;;;;;;;;;;14.00;92.30;;;;;;4986543;28;20004;-74
2022/11/08 12:15:27;;;;;;;;;;;14.00;92.30;;;;;;4995489;28;19921;-74
2022/11/08 12:18:06;;;;;;;;;;;14.00;92.20;;;;;;4987857;28;20458;-74
2022/11/08 12:20:58;;;;;;;;;;;14.10;92.10;;;;;;4987676;28;19940;-73
2022/11/08 12:23:23;;;;;;;;;;;14.20;92.20;;;;;;4986490;28;20484;-74
2022/11/08 12:25:49;;;;;;;;;;;14.20;92.20;;;;;;4987856;28;19914;-73
2022/11/08 12:28:23;;;;;;;;;;;14.20;92.10;;;;;;4987608;28;19910;-74
2022/11/08 12:30:53;;;;;;;;;;;14.20;92.00;;;;;;4987403;28;19914;-74
2022/11/08 12:33:22;;;;;;;;;;;14.30;92.00;;;;;;4987631;28;20616;-74
2022/11/08 12:36:10;;;;;;;;;;;14.30;92.00;;;;;;4987545;28;19913;-73
2022/11/08 12:38:51;;;;;;;;;;;14.40;92.10;;;;;;4986636;28;19914;-73
2022/11/08 12:41:28;;;;;;;;;;;14.30;92.00;;;;;;4986224;28;20013;-73
2022/11/08 12:44:02;;;;;;;;;;;14.40;92.00;;;;;;4995773;28;20509;-74
2022/11/08 12:46:30;;;;;;;;;;;14.40;92.00;;;;;;5006605;28;19920;-74
2022/11/08 12:49:14;;;;;;;;;;;14.40;92.00;;;;;;4992858;28;20016;-74
2022/11/08 12:52:09;;;;;;;;;;;14.40;92.00;;;;;;4984589;28;20421;-74
2022/11/08 12:54:39;;;;;;;;;;;14.40;92.00;;;;;;4982246;28;19913;-74
2022/11/08 12:57:09;;;;;;;;;;;14.40;92.20;;;;;;4986770;28;19914;-73
2022/11/08 12:59:41;;;;;;;;;;;14.40;92.20;;;;;;4985720;28;20005;-74
2022/11/08 13:02:15;;;;;;;;;;;14.40;92.20;;;;;;4986211;28;19945;-75
2022/11/08 13:04:59;;;;;;;;;;;14.50;92.20;;;;;;4986349;28;20578;-73
2022/11/08 13:07:43;;;;;;;;;;;14.50;92.30;;;;;;4986728;28;20306;-73
2022/11/08 13:10:28;;;;;;;;;;;14.50;92.20;;;;;;4986499;28;20294;-73
2022/11/08 13:13:21;;;;;;;;;;;14.40;92.00;;;;;;5084836;27;19913;-73
2022/11/08 13:16:13;;;;;;;;;;;14.50;92.20;;;;;;5081940;28;19916;-74
2022/11/08 13:18:49;;;;;;;;;;;14.50;92.20;;;;;;5080425;28;19916;-73
2022/11/08 13:21:24;;;;;;;;;;;14.50;92.10;;;;;;5062549;28;19958;-74
2022/11/08 13:23:50;;;;;;;;;;;14.50;92.30;;;;;;5062463;28;19924;-73
2022/11/08 13:26:23;;;;;;;;;;;14.50;92.30;;;;;;5060680;28;19909;-73
2022/11/08 13:28:49;;;;;;;;;;;14.60;92.20;;;;;;5062182;28;19920;-74
2022/11/08 13:31:15;;;;;;;;;;;14.50;92.20;;;;;;5087444;28;19916;-74
2022/11/08 13:33:44;;;;;;;;;;;14.50;92.30;;;;;;5102877;28;19916;-74
2022/11/08 13:36:19;;;;;;;;;;;14.60;92.30;;;;;;5102666;28;19939;-74
2022/11/08 13:38:48;;;;;;;;;;;14.60;92.30;;;;;;5102659;28;19908;-74
2022/11/08 13:41:20;;;;;;;;;;;14.50;92.20;;;;;;5102334;28;20522;-73
2022/11/08 13:43:46;;;;;;;;;;;14.50;92.40;;;;;;5083234;28;20274;-74
2022/11/08 13:46:28;;;;;;;;;;;14.50;92.40;;;;;;5080850;28;19913;-73
2022/11/08 13:48:56;;;;;;;;;;;14.50;92.30;;;;;;5081483;28;20025;-73
2022/11/08 13:51:32;;;;;;;;;;;14.50;92.40;;;;;;5080499;28;20011;-74
2022/11/08 13:53:58;;;;;;;;;;;14.50;92.40;;;;;;5081299;28;20442;-73
2022/11/08 13:56:43;;;;;;;;;;;14.50;92.40;;;;;;5083014;28;19920;-73
2022/11/08 13:59:27;;;;;;;;;;;14.50;92.40;;;;;;5100006;28;19923;-74
2022/11/08 14:01:53;;;;;;;;;;;14.50;92.30;;;;;;5062517;28;19955;-74
2022/11/08 14:04:23;;;;;;;;;;;14.50;92.40;;;;;;5077246;28;20574;-74
2022/11/08 14:07:00;;;;;;;;;;;14.50;92.50;;;;;;5080441;28;19919;-74
2022/11/08 14:09:25;;;;;;;;;;;14.50;92.40;;;;;;5080175;28;19913;-74
2022/11/08 14:12:10;;;;;;;;;;;14.50;92.50;;;;;;5089134;28;19920;-74
2022/11/08 14:14:35;;;;;;;;;;;14.50;92.50;;;;;;5077220;28;19969;-74
2022/11/08 14:17:21;;;;;;;;;;;14.50;92.60;;;;;;5081015;28;19920;-74
2022/11/08 14:19:46;;;;;;;;;;;14.50;92.60;;;;;;5080543;28;20007;-74
2022/11/08 14:22:20;;;;;;;;;;;14.50;92.70;;;;;;5079891;28;20515;-74
2022/11/08 14:24:46;;;;;;;;;;;14.50;92.70;;;;;;5066347;28;20562;-73
2022/11/08 14:27:12;;;;;;;;;;;14.40;92.70;;;;;;5068647;28;19999;-73
2022/11/08 14:29:38;;;;;;;;;;;14.40;92.70;;;;;;5067012;28;19916;-73
2022/11/08 14:32:05;;;;;;;;;;;14.40;92.70;;;;;;5065833;28;19943;-73
2022/11/08 14:34:31;;;;;;;;;;;14.40;92.70;;;;;;5067764;28;19917;-74
2022/11/08 14:36:56;;;;;;;;;;;14.40;92.80;;;;;;5067963;28;19966;-73
2022/11/08 14:39:28;;;;;;;;;;;14.40;92.70;;;;;;5099914;28;19948;-74
2022/11/08 14:41:55;;;;;;;;;;;14.40;92.80;;;;;;5068595;28;19942;-73